createdAt,value
2018-01-20T00:00:37.058Z,1002.19
2018-01-20T00:01:37.073Z,1002.18
2018-01-20T00:02:37.088Z,1002.19
2018-01-20T00:03:37.102Z,1002.24
2018-01-20T00:04:37.118Z,1002.25
2018-01-20T00:05:37.133Z,1002.26
2018-01-20T00:06:37.148Z,1002.24
2018-01-20T00:07:37.163Z,1002.24
2018-01-20T00:08:37.179Z,1002.24
2018-01-20T00:09:37.194Z,1002.27
2018-01-20T00:10:37.210Z,1002.25
2018-01-20T00:11:37.224Z,1002.27
2018-01-20T00:12:37.244Z,1002.26
2018-01-20T00:13:37.256Z,1002.25
2018-01-20T00:14:37.270Z,1002.26
2018-01-20T00:15:37.285Z,1002.28
2018-01-20T00:16:37.301Z,1002.24
2018-01-20T00:17:37.316Z,1002.27
2018-01-20T00:18:37.331Z,1002.28
2018-01-20T00:19:37.346Z,1002.27
2018-01-20T00:20:37.366Z,1002.27
2018-01-20T00:21:37.377Z,1002.25
2018-01-20T00:22:37.391Z,1002.24
2018-01-20T00:23:37.407Z,1002.28
2018-01-20T00:24:37.422Z,1002.32
2018-01-20T00:25:37.441Z,1002.33
2018-01-20T00:26:37.452Z,1002.29
2018-01-20T00:27:37.467Z,1002.32
2018-01-20T00:28:37.482Z,1002.28
2018-01-20T00:29:37.499Z,1002.29
2018-01-20T00:30:37.513Z,1002.26
2018-01-20T00:31:37.529Z,1002.24
2018-01-20T00:32:37.544Z,1002.26
2018-01-20T00:33:37.561Z,1002.24
2018-01-20T00:34:37.573Z,1002.25
2018-01-20T00:35:37.590Z,1002.26
2018-01-20T00:36:37.605Z,1002.22
2018-01-20T00:37:37.622Z,1002.25
2018-01-20T00:38:37.635Z,1002.24
2018-01-20T00:39:37.650Z,1002.24
2018-01-20T00:40:37.666Z,1002.22
2018-01-20T00:41:37.682Z,1002.25
2018-01-20T00:42:37.696Z,1002.22
2018-01-20T00:43:37.711Z,1002.24
2018-01-20T00:44:37.727Z,1002.19
2018-01-20T00:45:37.743Z,1002.18
2018-01-20T00:46:37.758Z,1002.17
2018-01-20T00:47:37.772Z,1002.17
2018-01-20T00:48:37.789Z,1002.17
2018-01-20T00:49:37.804Z,1002.17
2018-01-20T00:50:37.818Z,1002.14
2018-01-20T00:51:37.834Z,1002.18
2018-01-20T00:52:37.849Z,1002.14
2018-01-20T00:53:37.867Z,1002.20
2018-01-20T00:54:37.878Z,1002.15
2018-01-20T00:55:37.895Z,1002.17
2018-01-20T00:56:37.909Z,1002.11
2018-01-20T00:57:37.925Z,1002.11
2018-01-20T00:58:37.939Z,1002.06
2018-01-20T00:59:37.955Z,1002.05
2018-01-20T01:00:37.974Z,1002.02
2018-01-20T01:01:37.986Z,1002.04
2018-01-20T01:02:38.000Z,1002.02
2018-01-20T01:03:38.015Z,1002.03
2018-01-20T01:04:38.031Z,1001.97
2018-01-20T01:05:38.046Z,1002.00
2018-01-20T01:06:38.060Z,1001.99
2018-01-20T01:07:38.076Z,1001.97
2018-01-20T01:08:38.090Z,1001.96
2018-01-20T01:09:38.106Z,1001.93
2018-01-20T01:10:38.121Z,1001.94
2018-01-20T01:11:38.137Z,1001.92
2018-01-20T01:12:38.152Z,1001.92
2018-01-20T01:13:38.167Z,1001.94
2018-01-20T01:14:38.181Z,1001.92
2018-01-20T01:15:38.197Z,1001.98
2018-01-20T01:16:38.213Z,1001.98
2018-01-20T01:17:38.228Z,1001.94
2018-01-20T01:18:38.242Z,1001.90
2018-01-20T01:19:38.258Z,1001.96
2018-01-20T01:20:38.272Z,1001.96
2018-01-20T01:21:38.288Z,1001.99
2018-01-20T01:22:38.303Z,1001.97
2018-01-20T01:23:38.318Z,1001.98
2018-01-20T01:24:38.334Z,1001.99
2018-01-20T01:25:38.349Z,1001.98
2018-01-20T01:26:38.363Z,1001.95
2018-01-20T01:27:38.379Z,1001.94
2018-01-20T01:28:38.394Z,1001.93
2018-01-20T01:29:38.409Z,1001.94
2018-01-20T01:30:38.424Z,1001.97
2018-01-20T01:31:38.440Z,1001.90
2018-01-20T01:32:38.454Z,1001.89
2018-01-20T01:33:38.470Z,1001.96
2018-01-20T01:34:38.484Z,1001.95
2018-01-20T01:35:38.500Z,1001.93
2018-01-20T01:36:38.519Z,1001.90
2018-01-20T01:37:38.532Z,1001.91
2018-01-20T01:38:38.545Z,1001.94
2018-01-20T01:39:38.560Z,1001.89
2018-01-20T01:40:38.577Z,1001.89
2018-01-20T01:41:38.591Z,1001.88
2018-01-20T01:42:38.605Z,1001.88
2018-01-20T01:43:38.621Z,1001.87
2018-01-20T01:44:38.636Z,1001.83
2018-01-20T01:45:38.657Z,1001.88
2018-01-20T01:46:38.666Z,1001.86
2018-01-20T01:47:38.682Z,1001.84
2018-01-20T01:48:38.697Z,1001.86
2018-01-20T01:49:38.714Z,1001.91
2018-01-20T01:50:38.728Z,1001.88
2018-01-20T01:51:38.744Z,1001.94
2018-01-20T01:52:38.757Z,1001.92
2018-01-20T01:53:38.773Z,1001.92
2018-01-20T01:54:38.937Z,1001.90
2018-01-20T01:55:38.805Z,1001.89
2018-01-20T01:56:38.818Z,1001.90
2018-01-20T01:57:38.833Z,1001.97
2018-01-20T01:58:38.847Z,1001.98
2018-01-20T01:59:38.863Z,1001.91
2018-01-20T02:00:38.879Z,1001.96
2018-01-20T02:01:38.894Z,1001.87
2018-01-20T02:02:38.908Z,1001.90
2018-01-20T02:03:38.923Z,1001.89
2018-01-20T02:04:39.089Z,1001.94
2018-01-20T02:05:38.954Z,1001.94
2018-01-20T02:06:38.968Z,1001.94
2018-01-20T02:07:38.984Z,1001.87
2018-01-20T02:08:38.999Z,1001.94
2018-01-20T02:09:39.015Z,1001.90
2018-01-20T02:10:39.031Z,1001.90
2018-01-20T02:11:39.045Z,1001.84
2018-01-20T02:12:39.060Z,1001.85
2018-01-20T02:13:39.075Z,1001.88
2018-01-20T02:14:39.090Z,1001.82
2018-01-20T02:15:39.106Z,1001.84
2018-01-20T02:16:39.121Z,1001.87
2018-01-20T02:17:39.136Z,1001.85
2018-01-20T02:18:39.151Z,1001.85
2018-01-20T02:19:39.166Z,1001.86
2018-01-20T02:20:39.181Z,1001.89
2018-01-20T02:21:39.197Z,1001.90
2018-01-20T02:22:39.212Z,1001.90
2018-01-20T02:23:39.228Z,1001.96
2018-01-20T02:24:39.243Z,1001.93
2018-01-20T02:25:39.258Z,1001.89
2018-01-20T02:26:39.272Z,1001.91
2018-01-20T02:27:39.287Z,1001.86
2018-01-20T02:28:39.303Z,1001.84
2018-01-20T02:29:39.318Z,1001.86
2018-01-20T02:30:39.784Z,1001.87
2018-01-20T02:31:39.349Z,1001.84
2018-01-20T02:32:39.394Z,1001.83
2018-01-20T02:33:39.379Z,1001.88
2018-01-20T02:34:39.394Z,1001.86
2018-01-20T02:35:39.409Z,1001.88
2018-01-20T02:36:39.425Z,1001.88
2018-01-20T02:37:39.441Z,1001.84
2018-01-20T02:38:39.454Z,1001.86
2018-01-20T02:39:39.470Z,1001.85
2018-01-20T02:40:39.485Z,1001.88
2018-01-20T02:41:39.501Z,1001.89
2018-01-20T02:42:39.515Z,1001.91
2018-01-20T02:43:39.531Z,1001.93
2018-01-20T02:44:39.546Z,1001.90
2018-01-20T02:45:39.562Z,1001.90
2018-01-20T02:46:39.577Z,1001.87
2018-01-20T02:47:39.592Z,1001.90
2018-01-20T02:48:39.760Z,1001.88
2018-01-20T02:49:39.623Z,1001.82
2018-01-20T02:50:39.637Z,1001.85
2018-01-20T02:51:39.653Z,1001.95
2018-01-20T02:52:39.668Z,1001.91
2018-01-20T02:53:39.683Z,1001.91
2018-01-20T02:54:39.698Z,1001.93
2018-01-20T02:55:39.714Z,1001.85
2018-01-20T02:56:39.729Z,1001.85
2018-01-20T02:57:39.894Z,1001.93
2018-01-20T02:58:39.759Z,1001.94
2018-01-20T02:59:39.774Z,1001.86
2018-01-20T03:00:39.791Z,1001.87
2018-01-20T03:01:39.805Z,1001.87
2018-01-20T03:02:39.820Z,1001.85
2018-01-20T03:03:39.835Z,1001.84
2018-01-20T03:04:39.850Z,1001.84
2018-01-20T03:05:39.866Z,1001.85
2018-01-20T03:06:39.880Z,1001.79
2018-01-20T03:07:39.895Z,1001.79
2018-01-20T03:08:39.911Z,1001.76
2018-01-20T03:09:39.928Z,1001.74
2018-01-20T03:10:39.941Z,1001.69
2018-01-20T03:11:39.956Z,1001.67
2018-01-20T03:12:39.971Z,1001.68
2018-01-20T03:13:39.987Z,1001.57
2018-01-20T03:14:40.002Z,1001.62
2018-01-20T03:15:40.017Z,1001.60
2018-01-20T03:16:40.032Z,1001.63
2018-01-20T03:17:40.048Z,1001.64
2018-01-20T03:18:40.062Z,1001.59
2018-01-20T03:19:40.078Z,1001.58
2018-01-20T03:20:40.093Z,1001.59
2018-01-20T03:21:40.109Z,1001.60
2018-01-20T03:22:40.123Z,1001.62
2018-01-20T03:23:40.138Z,1001.61
2018-01-20T03:24:40.154Z,1001.65
2018-01-20T03:25:40.169Z,1001.58
2018-01-20T03:26:40.183Z,1001.57
2018-01-20T03:27:40.200Z,1001.57
2018-01-20T03:28:40.214Z,1001.54
2018-01-20T03:29:40.230Z,1001.51
2018-01-20T03:30:40.247Z,1001.49
2018-01-20T03:31:40.259Z,1001.45
2018-01-20T03:32:40.275Z,1001.52
2018-01-20T03:33:40.291Z,1001.48
2018-01-20T03:34:40.305Z,1001.51
2018-01-20T03:35:40.320Z,1001.39
2018-01-20T03:36:40.336Z,1001.42
2018-01-20T03:37:40.351Z,1001.45
2018-01-20T03:38:40.407Z,1001.41
2018-01-20T03:39:40.381Z,1001.39
2018-01-20T03:40:40.397Z,1001.38
2018-01-20T03:41:40.416Z,1001.33
2018-01-20T03:42:40.426Z,1001.33
2018-01-20T03:43:40.441Z,1001.31
2018-01-20T03:44:40.456Z,1001.30
2018-01-20T03:45:40.521Z,1001.26
2018-01-20T03:46:40.486Z,1001.30
2018-01-20T03:47:40.500Z,1001.30
2018-01-20T03:48:40.516Z,1001.33
2018-01-20T03:49:40.531Z,1001.29
2018-01-20T03:50:40.546Z,1001.29
2018-01-20T03:51:40.562Z,1001.35
2018-01-20T03:52:40.576Z,1001.34
2018-01-20T03:53:40.591Z,1001.30
2018-01-20T03:54:40.605Z,1001.27
2018-01-20T03:55:40.621Z,1001.30
2018-01-20T03:56:40.636Z,1001.28
2018-01-20T03:57:40.655Z,1001.30
2018-01-20T03:58:40.666Z,1001.30
2018-01-20T03:59:40.681Z,1001.24
2018-01-20T04:00:40.696Z,1001.28
2018-01-20T04:01:40.712Z,1001.24
2018-01-20T04:02:40.726Z,1001.22
2018-01-20T04:03:40.741Z,1001.21
2018-01-20T04:04:40.757Z,1001.25
2018-01-20T04:05:40.772Z,1001.17
2018-01-20T04:06:40.786Z,1001.17
2018-01-20T04:07:40.801Z,1001.12
2018-01-20T04:08:40.817Z,1001.12
2018-01-20T04:09:40.832Z,1001.15
2018-01-20T04:10:40.845Z,1001.09
2018-01-20T04:11:40.862Z,1001.05
2018-01-20T04:12:40.877Z,1001.02
2018-01-20T04:13:40.892Z,1001.04
2018-01-20T04:14:40.997Z,1001.03
2018-01-20T04:15:40.922Z,1001.02
2018-01-20T04:16:40.937Z,1001.07
2018-01-20T04:17:40.953Z,1001.07
2018-01-20T04:18:40.967Z,1001.07
2018-01-20T04:19:40.983Z,1001.02
2018-01-20T04:20:41.002Z,1001.02
2018-01-20T04:21:41.162Z,1001.00
2018-01-20T04:22:41.028Z,1001.03
2018-01-20T04:23:41.043Z,1001.07
2018-01-20T04:24:41.057Z,1001.03
2018-01-20T04:25:41.073Z,1001.00
2018-01-20T04:26:41.087Z,1000.97
2018-01-20T04:27:41.102Z,1001.01
2018-01-20T04:28:41.117Z,1000.97
2018-01-20T04:29:41.133Z,1000.95
2018-01-20T04:30:41.147Z,1000.97
2018-01-20T04:31:41.162Z,1000.91
2018-01-20T04:32:41.177Z,1000.96
2018-01-20T04:33:41.193Z,1000.94
2018-01-20T04:34:41.206Z,1000.95
2018-01-20T04:35:41.222Z,1000.87
2018-01-20T04:36:41.239Z,1000.90
2018-01-20T04:37:41.252Z,1000.87
2018-01-20T04:38:41.267Z,1000.87
2018-01-20T04:39:41.282Z,1000.85
2018-01-20T04:40:41.297Z,1000.88
2018-01-20T04:41:41.312Z,1000.85
2018-01-20T04:42:41.332Z,1000.83
2018-01-20T04:43:41.342Z,1000.82
2018-01-20T04:44:41.357Z,1000.84
2018-01-20T04:45:41.372Z,1000.82
2018-01-20T04:46:41.387Z,1000.80
2018-01-20T04:47:41.839Z,1000.74
2018-01-20T04:48:41.417Z,1000.79
2018-01-20T04:49:41.433Z,1000.78
2018-01-20T04:50:41.446Z,1000.78
2018-01-20T04:51:41.464Z,1000.79
2018-01-20T04:52:41.477Z,1000.77
2018-01-20T04:53:41.492Z,1000.72
2018-01-20T04:54:41.507Z,1000.74
2018-01-20T04:55:41.526Z,1000.76
2018-01-20T04:56:41.537Z,1000.73
2018-01-20T04:57:41.552Z,1000.75
2018-01-20T04:58:41.567Z,1000.77
2018-01-20T04:59:41.582Z,1000.72
2018-01-20T05:00:41.597Z,1000.71
2018-01-20T05:01:41.612Z,1000.72
2018-01-20T05:02:41.626Z,1000.72
2018-01-20T05:03:41.642Z,1000.75
2018-01-20T05:04:41.657Z,1000.70
2018-01-20T05:05:41.673Z,1000.70
2018-01-20T05:06:41.686Z,1000.69
2018-01-20T05:07:41.703Z,1000.69
2018-01-20T05:08:41.718Z,1000.71
2018-01-20T05:09:41.732Z,1000.65
2018-01-20T05:10:41.749Z,1000.64
2018-01-20T05:11:41.913Z,1000.64
2018-01-20T05:12:41.779Z,1000.64
2018-01-20T05:13:41.793Z,1000.64
2018-01-20T05:14:41.808Z,1000.60
2018-01-20T05:15:41.823Z,1000.59
2018-01-20T05:16:41.839Z,1000.58
2018-01-20T05:17:41.855Z,1000.52
2018-01-20T05:18:41.869Z,1000.55
2018-01-20T05:19:41.884Z,1000.54
2018-01-20T05:20:41.899Z,1000.51
2018-01-20T05:21:41.914Z,1000.53
2018-01-20T05:22:41.928Z,1000.53
2018-01-20T05:23:41.945Z,1000.53
2018-01-20T05:24:41.960Z,1000.53
2018-01-20T05:25:41.976Z,1000.54
2018-01-20T05:26:41.990Z,1000.52
2018-01-20T05:27:42.005Z,1000.56
2018-01-20T05:28:42.020Z,1000.55
2018-01-20T05:29:42.036Z,1000.54
2018-01-20T05:30:42.050Z,1000.55
2018-01-20T05:31:42.065Z,1000.55
2018-01-20T05:32:42.081Z,1000.52
2018-01-20T05:33:42.097Z,1000.52
2018-01-20T05:34:45.144Z,1000.52
2018-01-20T05:35:42.127Z,1000.52
2018-01-20T05:36:42.142Z,1000.49
2018-01-20T05:37:42.157Z,1000.50
2018-01-20T05:38:42.174Z,1000.50
2018-01-20T05:39:42.187Z,1000.51
2018-01-20T05:40:42.202Z,1000.46
2018-01-20T05:41:42.218Z,1000.49
2018-01-20T05:42:42.232Z,1000.50
2018-01-20T05:43:42.248Z,1000.50
2018-01-20T05:44:42.263Z,1000.48
2018-01-20T05:45:42.278Z,1000.46
2018-01-20T05:46:42.293Z,1000.47
2018-01-20T05:47:42.308Z,1000.52
2018-01-20T05:48:42.324Z,1000.47
2018-01-20T05:49:42.339Z,1000.42
2018-01-20T05:50:42.354Z,1000.44
2018-01-20T05:51:42.369Z,1000.49
2018-01-20T05:52:42.560Z,1000.44
2018-01-20T05:53:42.400Z,1000.46
2018-01-20T05:54:42.414Z,1000.49
2018-01-20T05:55:42.430Z,1000.51
2018-01-20T05:56:42.445Z,1000.50
2018-01-20T05:57:42.460Z,1000.52
2018-01-20T05:58:42.475Z,1000.51
2018-01-20T05:59:42.490Z,1000.49
2018-01-20T06:00:42.505Z,1000.51
2018-01-20T06:01:42.521Z,1000.49
2018-01-20T06:02:42.536Z,1000.50
2018-01-20T06:03:42.551Z,1000.47
2018-01-20T06:04:42.566Z,1000.49
2018-01-20T06:05:42.581Z,1000.47
2018-01-20T06:06:42.596Z,1000.47
2018-01-20T06:07:42.612Z,1000.50
2018-01-20T06:08:42.630Z,1000.49
2018-01-20T06:09:42.643Z,1000.49
2018-01-20T06:10:42.656Z,1000.50
2018-01-20T06:11:42.673Z,1000.48
2018-01-20T06:12:42.691Z,1000.47
2018-01-20T06:13:42.704Z,1000.38
2018-01-20T06:14:42.718Z,1000.44
2018-01-20T06:15:42.733Z,1000.43
2018-01-20T06:16:42.749Z,1000.39
2018-01-20T06:17:42.764Z,1000.37
2018-01-20T06:18:42.779Z,1000.41
2018-01-20T06:19:42.794Z,1000.42
2018-01-20T06:20:42.810Z,1000.42
2018-01-20T06:21:42.825Z,1000.39
2018-01-20T06:22:42.840Z,1000.36
2018-01-20T06:23:42.855Z,1000.38
2018-01-20T06:24:42.871Z,1000.37
2018-01-20T06:25:42.887Z,1000.32
2018-01-20T06:26:42.901Z,1000.39
2018-01-20T06:27:42.919Z,1000.38
2018-01-20T06:28:42.932Z,1000.40
2018-01-20T06:29:42.949Z,1000.42
2018-01-20T06:30:42.962Z,1000.40
2018-01-20T06:31:42.977Z,1000.35
2018-01-20T06:32:42.992Z,1000.34
2018-01-20T06:33:43.047Z,1000.32
2018-01-20T06:34:43.023Z,1000.35
2018-01-20T06:35:43.037Z,1000.30
2018-01-20T06:36:43.053Z,1000.31
2018-01-20T06:37:43.068Z,1000.24
2018-01-20T06:38:43.083Z,1000.31
2018-01-20T06:39:43.098Z,1000.28
2018-01-20T06:40:43.114Z,1000.27
2018-01-20T06:41:43.129Z,1000.28
2018-01-20T06:42:43.144Z,1000.33
2018-01-20T06:43:43.159Z,1000.29
2018-01-20T06:44:43.253Z,1000.32
2018-01-20T06:45:43.190Z,1000.32
2018-01-20T06:46:43.205Z,1000.29
2018-01-20T06:47:43.220Z,1000.29
2018-01-20T06:48:43.236Z,1000.31
2018-01-20T06:49:43.250Z,1000.36
2018-01-20T06:50:43.265Z,1000.29
2018-01-20T06:51:43.281Z,1000.30
2018-01-20T06:52:43.296Z,1000.29
2018-01-20T06:53:43.311Z,1000.29
2018-01-20T06:54:43.327Z,1000.25
2018-01-20T06:55:43.491Z,1000.23
2018-01-20T06:56:43.357Z,1000.20
2018-01-20T06:57:43.372Z,1000.22
2018-01-20T06:58:43.387Z,1000.20
2018-01-20T06:59:43.401Z,1000.19
2018-01-20T07:00:43.417Z,1000.19
2018-01-20T07:01:43.433Z,1000.18
2018-01-20T07:02:43.449Z,1000.21
2018-01-20T07:03:43.463Z,1000.16
2018-01-20T07:04:43.478Z,1000.18
2018-01-20T07:05:43.494Z,1000.17
2018-01-20T07:06:43.512Z,1000.23
2018-01-20T07:07:43.524Z,1000.17
2018-01-20T07:08:43.539Z,1000.14
2018-01-20T07:09:43.554Z,1000.19
2018-01-20T07:10:43.569Z,1000.21
2018-01-20T07:11:43.586Z,1000.19
2018-01-20T07:12:43.600Z,1000.20
2018-01-20T07:13:43.616Z,1000.20
2018-01-20T07:14:43.630Z,1000.24
2018-01-20T07:15:43.645Z,1000.22
2018-01-20T07:16:43.666Z,1000.18
2018-01-20T07:17:43.677Z,1000.21
2018-01-20T07:18:43.691Z,1000.21
2018-01-20T07:19:43.706Z,1000.19
2018-01-20T07:20:43.725Z,1000.20
2018-01-20T07:21:43.737Z,1000.24
2018-01-20T07:22:43.752Z,1000.23
2018-01-20T07:23:43.768Z,1000.23
2018-01-20T07:24:43.782Z,1000.24
2018-01-20T07:25:43.798Z,1000.19
2018-01-20T07:26:43.812Z,1000.24
2018-01-20T07:27:43.828Z,1000.26
2018-01-20T07:28:43.844Z,1000.26
2018-01-20T07:29:44.010Z,1000.21
2018-01-20T07:30:43.873Z,1000.25
2018-01-20T07:31:43.889Z,1000.25
2018-01-20T07:32:43.905Z,1000.21
2018-01-20T07:33:43.920Z,1000.20
2018-01-20T07:34:43.935Z,1000.20
2018-01-20T07:35:43.950Z,1000.15
2018-01-20T07:36:43.965Z,1000.12
2018-01-20T07:37:44.032Z,1000.17
2018-01-20T07:38:43.996Z,1000.13
2018-01-20T07:39:44.011Z,1000.16
2018-01-20T07:40:44.027Z,1000.17
2018-01-20T07:41:44.043Z,1000.18
2018-01-20T07:42:44.057Z,1000.13
2018-01-20T07:43:44.073Z,1000.17
2018-01-20T07:44:44.088Z,1000.17
2018-01-20T07:45:44.104Z,1000.19
2018-01-20T07:46:44.118Z,1000.18
2018-01-20T07:47:44.134Z,1000.19
2018-01-20T07:48:44.155Z,1000.20
2018-01-20T07:49:44.315Z,1000.16
2018-01-20T07:50:44.179Z,1000.14
2018-01-20T07:51:44.195Z,1000.11
2018-01-20T07:52:44.211Z,1000.09
2018-01-20T07:53:44.226Z,1000.04
2018-01-20T07:54:44.241Z,1000.03
2018-01-20T07:55:44.257Z,1000.10
2018-01-20T07:56:44.272Z,1000.08
2018-01-20T07:57:44.288Z,1000.05
2018-01-20T07:58:44.302Z,1000.08
2018-01-20T07:59:44.318Z,1000.01
2018-01-20T08:00:44.385Z,1000.04
2018-01-20T08:01:44.349Z,1000.04
2018-01-20T08:02:44.364Z,1000.00
2018-01-20T08:03:44.379Z,1000.04
2018-01-20T08:04:44.395Z,1000.02
2018-01-20T08:05:44.410Z,1000.02
2018-01-20T08:06:44.426Z,999.98
2018-01-20T08:07:44.441Z,1000.01
2018-01-20T08:08:44.456Z,999.98
2018-01-20T08:09:44.472Z,999.95
2018-01-20T08:10:44.486Z,999.95
2018-01-20T08:11:44.502Z,999.96
2018-01-20T08:12:44.518Z,999.95
2018-01-20T08:13:44.534Z,999.95
2018-01-20T08:14:44.548Z,999.93
2018-01-20T08:15:44.563Z,999.94
2018-01-20T08:16:44.580Z,999.94
2018-01-20T08:17:44.595Z,999.93
2018-01-20T08:18:44.610Z,999.86
2018-01-20T08:19:44.626Z,999.91
2018-01-20T08:20:44.641Z,999.92
2018-01-20T08:21:44.657Z,999.93
2018-01-20T08:22:44.672Z,999.91
2018-01-20T08:23:44.687Z,999.95
2018-01-20T08:24:44.703Z,999.97
2018-01-20T08:25:44.719Z,1000.02
2018-01-20T08:26:44.733Z,999.95
2018-01-20T08:27:44.749Z,1000.00
2018-01-20T08:28:44.765Z,999.97
2018-01-20T08:29:44.780Z,1000.03
2018-01-20T08:30:44.796Z,999.98
2018-01-20T08:31:44.813Z,999.98
2018-01-20T08:32:44.827Z,999.95
2018-01-20T08:33:44.843Z,999.99
2018-01-20T08:34:44.857Z,1000.01
2018-01-20T08:35:44.873Z,1000.02
2018-01-20T08:36:44.889Z,1000.00
2018-01-20T08:37:44.905Z,1000.02
2018-01-20T08:38:44.919Z,1000.06
2018-01-20T08:39:45.086Z,1000.06
2018-01-20T08:40:44.952Z,1000.02
2018-01-20T08:41:44.968Z,1000.01
2018-01-20T08:42:44.982Z,999.98
2018-01-20T08:43:44.998Z,1000.02
2018-01-20T08:44:45.014Z,1000.02
2018-01-20T08:45:45.030Z,999.99
2018-01-20T08:46:45.045Z,999.94
2018-01-20T08:47:45.063Z,999.94
2018-01-20T08:48:45.077Z,999.97
2018-01-20T08:49:45.093Z,999.89
2018-01-20T08:50:45.108Z,999.89
2018-01-20T08:51:45.124Z,999.89
2018-01-20T08:52:45.140Z,999.91
2018-01-20T08:53:45.158Z,999.88
2018-01-20T08:54:45.173Z,999.89
2018-01-20T08:55:45.188Z,999.89
2018-01-20T08:56:45.203Z,999.83
2018-01-20T08:57:45.222Z,999.85
2018-01-20T08:58:45.235Z,999.87
2018-01-20T08:59:45.251Z,999.81
2018-01-20T09:00:45.267Z,999.85
2018-01-20T09:01:45.283Z,999.84
2018-01-20T09:02:45.299Z,999.83
2018-01-20T09:03:45.317Z,999.83
2018-01-20T09:04:45.330Z,999.79
2018-01-20T09:05:45.347Z,999.79
2018-01-20T09:06:45.362Z,999.80
2018-01-20T09:07:45.383Z,999.80
2018-01-20T09:08:45.395Z,999.80
2018-01-20T09:09:45.414Z,999.81
2018-01-20T09:10:45.426Z,999.77
2018-01-20T09:11:45.442Z,999.78
2018-01-20T09:12:45.459Z,999.80
2018-01-20T09:13:45.475Z,999.75
2018-01-20T09:14:45.491Z,999.80
2018-01-20T09:15:45.512Z,999.77
2018-01-20T09:16:45.523Z,999.76
2018-01-20T09:17:45.537Z,999.74
2018-01-20T09:18:45.553Z,999.75
2018-01-20T09:19:45.570Z,999.77
2018-01-20T09:20:45.585Z,999.75
2018-01-20T09:21:45.602Z,999.78
2018-01-20T09:22:45.617Z,999.70
2018-01-20T09:23:45.634Z,999.69
2018-01-20T09:24:45.650Z,999.67
2018-01-20T09:25:45.666Z,999.66
2018-01-20T09:26:45.680Z,999.66
2018-01-20T09:27:45.698Z,999.63
2018-01-20T09:28:45.712Z,999.62
2018-01-20T09:29:45.730Z,999.65
2018-01-20T09:30:45.896Z,999.59
2018-01-20T09:31:45.762Z,999.65
2018-01-20T09:32:45.778Z,999.65
2018-01-20T09:33:45.795Z,999.62
2018-01-20T09:34:45.811Z,999.61
2018-01-20T09:35:45.826Z,999.61
2018-01-20T09:36:45.842Z,999.60
2018-01-20T09:37:45.859Z,999.62
2018-01-20T09:38:45.874Z,999.64
2018-01-20T09:39:45.890Z,999.62
2018-01-20T09:40:45.906Z,999.59
2018-01-20T09:41:45.923Z,999.56
2018-01-20T09:42:45.941Z,999.54
2018-01-20T09:43:46.009Z,999.53
2018-01-20T09:44:45.971Z,999.52
2018-01-20T09:45:45.987Z,999.51
2018-01-20T09:46:46.003Z,999.53
2018-01-20T09:47:46.019Z,999.49
2018-01-20T09:48:46.036Z,999.46
2018-01-20T09:49:46.050Z,999.44
2018-01-20T09:50:46.067Z,999.40
2018-01-20T09:51:46.183Z,999.44
2018-01-20T09:52:46.105Z,999.47
2018-01-20T09:53:46.117Z,999.48
2018-01-20T09:54:46.132Z,999.45
2018-01-20T09:55:46.148Z,999.39
2018-01-20T09:56:46.165Z,999.36
2018-01-20T09:57:46.182Z,999.36
2018-01-20T09:58:46.197Z,999.31
2018-01-20T09:59:46.213Z,999.30
2018-01-20T10:00:46.229Z,999.35
2018-01-20T10:01:46.249Z,999.27
2018-01-20T10:02:46.262Z,999.29
2018-01-20T10:03:46.278Z,999.29
2018-01-20T10:04:46.294Z,999.22
2018-01-20T10:05:46.311Z,999.18
2018-01-20T10:06:46.326Z,999.15
2018-01-20T10:07:46.343Z,999.17
2018-01-20T10:08:46.359Z,999.20
2018-01-20T10:09:46.375Z,999.17
2018-01-20T10:10:46.391Z,999.24
2018-01-20T10:11:46.407Z,999.24
2018-01-20T10:12:46.423Z,999.21
2018-01-20T10:13:46.440Z,999.19
2018-01-20T10:14:46.555Z,999.21
2018-01-20T10:15:46.471Z,999.16
2018-01-20T10:16:46.487Z,999.15
2018-01-20T10:17:46.504Z,999.17
2018-01-20T10:18:46.519Z,999.16
2018-01-20T10:19:46.536Z,999.12
2018-01-20T10:20:46.552Z,999.13
2018-01-20T10:21:46.568Z,999.13
2018-01-20T10:22:46.583Z,999.12
2018-01-20T10:23:46.600Z,999.06
2018-01-20T10:24:46.616Z,999.04
2018-01-20T10:25:46.632Z,999.05
2018-01-20T10:26:46.647Z,999.07
2018-01-20T10:27:46.664Z,999.04
2018-01-20T10:28:46.680Z,999.06
2018-01-20T10:29:46.697Z,999.06
2018-01-20T10:30:46.711Z,999.06
2018-01-20T10:31:46.732Z,999.05
2018-01-20T10:32:46.750Z,999.07
2018-01-20T10:33:46.762Z,999.01
2018-01-20T10:34:46.776Z,998.96
2018-01-20T10:35:46.793Z,998.96
2018-01-20T10:36:46.810Z,998.93
2018-01-20T10:37:46.827Z,998.88
2018-01-20T10:38:46.842Z,998.85
2018-01-20T10:39:46.857Z,998.80
2018-01-20T10:40:46.874Z,998.75
2018-01-20T10:41:46.891Z,998.75
2018-01-20T10:42:46.907Z,998.73
2018-01-20T10:43:46.923Z,998.72
2018-01-20T10:44:46.940Z,998.74
2018-01-20T10:45:46.957Z,998.75
2018-01-20T10:46:46.972Z,998.74
2018-01-20T10:47:46.991Z,998.70
2018-01-20T10:48:47.005Z,998.70
2018-01-20T10:49:47.133Z,998.69
2018-01-20T10:50:47.038Z,998.69
2018-01-20T10:51:47.057Z,998.65
2018-01-20T10:52:47.072Z,998.67
2018-01-20T10:53:47.088Z,998.61
2018-01-20T10:54:47.104Z,998.58
2018-01-20T10:55:47.124Z,998.59
2018-01-20T10:56:47.138Z,998.58
2018-01-20T10:57:47.155Z,998.60
2018-01-20T10:58:47.171Z,998.55
2018-01-20T10:59:47.187Z,998.57
2018-01-20T11:00:47.206Z,998.49
2018-01-20T11:01:47.221Z,998.53
2018-01-20T11:02:47.238Z,998.52
2018-01-20T11:03:47.256Z,998.49
2018-01-20T11:04:47.270Z,998.44
2018-01-20T11:05:47.287Z,998.47
2018-01-20T11:06:47.304Z,998.47
2018-01-20T11:07:47.320Z,998.48
2018-01-20T11:08:47.337Z,998.35
2018-01-20T11:09:47.354Z,998.33
2018-01-20T11:10:47.370Z,998.25
2018-01-20T11:11:47.387Z,998.29
2018-01-20T11:12:47.405Z,998.28
2018-01-20T11:13:47.574Z,998.25
2018-01-20T11:14:47.437Z,998.28
2018-01-20T11:15:47.454Z,998.24
2018-01-20T11:16:47.471Z,998.23
2018-01-20T11:17:47.488Z,998.18
2018-01-20T11:18:47.504Z,998.19
2018-01-20T11:19:47.521Z,998.18
2018-01-20T11:20:47.538Z,998.17
2018-01-20T11:21:47.555Z,998.13
2018-01-20T11:22:47.571Z,998.12
2018-01-20T11:23:47.588Z,998.11
2018-01-20T11:24:47.755Z,998.07
2018-01-20T11:25:47.622Z,998.02
2018-01-20T11:26:47.675Z,998.02
2018-01-20T11:27:47.655Z,998.02
2018-01-20T11:28:47.672Z,998.00
2018-01-20T11:29:47.689Z,997.93
2018-01-20T11:30:47.705Z,997.97
2018-01-20T11:31:47.722Z,997.93
2018-01-20T11:32:47.740Z,997.92
2018-01-20T11:33:47.756Z,997.90
2018-01-20T11:34:47.778Z,997.90
2018-01-20T11:35:47.788Z,997.87
2018-01-20T11:36:47.808Z,997.88
2018-01-20T11:37:47.823Z,997.83
2018-01-20T11:38:47.876Z,997.85
2018-01-20T11:39:47.856Z,997.82
2018-01-20T11:40:47.873Z,997.79
2018-01-20T11:41:47.890Z,997.79
2018-01-20T11:42:47.906Z,997.78
2018-01-20T11:43:47.924Z,997.74
2018-01-20T11:44:47.940Z,997.71
2018-01-20T11:45:47.957Z,997.71
2018-01-20T11:46:47.973Z,997.68
2018-01-20T11:47:47.990Z,997.64
2018-01-20T11:48:48.008Z,997.63
2018-01-20T11:49:48.025Z,997.62
2018-01-20T11:50:48.042Z,997.63
2018-01-20T11:51:48.064Z,997.56
2018-01-20T11:52:48.075Z,997.52
2018-01-20T11:53:48.092Z,997.52
2018-01-20T11:54:48.107Z,997.46
2018-01-20T11:55:48.125Z,997.40
2018-01-20T11:56:48.142Z,997.39
2018-01-20T11:57:48.159Z,997.42
2018-01-20T11:58:48.175Z,997.32
2018-01-20T11:59:48.192Z,997.35
2018-01-20T12:00:48.208Z,997.32
2018-01-20T12:01:48.226Z,997.35
2018-01-20T12:02:48.242Z,997.30
2018-01-20T12:03:48.272Z,997.26
2018-01-20T12:04:48.277Z,997.23
2018-01-20T12:05:48.293Z,997.20
2018-01-20T12:06:48.312Z,997.18
2018-01-20T12:07:48.326Z,997.15
2018-01-20T12:08:48.344Z,997.11
2018-01-20T12:09:48.361Z,997.09
2018-01-20T12:10:48.377Z,997.06
2018-01-20T12:11:48.395Z,997.05
2018-01-20T12:12:48.411Z,997.01